Time;durP1;ratioP1;P1;durP2;ratioP2;P2;SDS_P1;SDS_P2;PMS_P1;PMS_P2;Temp;Humidity;BMP_temperature;BMP_pressure;BME280_temperature;BME280_humidity;BME280_pressure;Samples;Min_cycle;Max_cycle;Signal;HPM_P1;HPM_P2
2023/05/03 04:01:30;;;;;;;0.88;0.88;;;5.30;99.90;;;;;;5482614;23;20241;-72
2023/05/03 04:03:57;;;;;;;2.70;2.67;;;5.30;99.90;;;;;;5008951;28;20257;-73
2023/05/03 04:06:24;;;;;;;0.80;0.80;;;5.40;99.90;;;;;;5010525;28;20215;-72
2023/05/03 04:08:51;;;;;;;1.05;1.05;;;5.40;99.90;;;;;;5010939;28;20233;-72
2023/05/03 04:11:17;;;;;;;0.68;0.68;;;5.50;99.90;;;;;;5010193;28;20719;-73
2023/05/03 04:13:44;;;;;;;1.05;1.05;;;5.50;99.90;;;;;;5010598;28;20689;-73
2023/05/03 04:16:11;;;;;;;1.67;1.27;;;5.50;99.90;;;;;;5010541;28;20642;-72
2023/05/03 04:18:39;;;;;;;2.33;1.85;;;5.60;99.90;;;;;;5010839;28;20215;-73
2023/05/03 04:21:06;;;;;;;0.88;0.88;;;5.60;99.90;;;;;;5010015;28;20719;-73
2023/05/03 04:23:33;;;;;;;2.80;0.60;;;5.70;99.90;;;;;;5010082;28;20231;-73
2023/05/03 04:26:00;;;;;;;1.63;0.95;;;5.70;99.90;;;;;;5010245;28;20203;-73
2023/05/03 04:28:27;;;;;;;6.03;2.03;;;5.80;99.90;;;;;;5010740;28;20313;-73
2023/05/03 04:30:54;;;;;;;3.45;1.50;;;5.80;99.90;;;;;;5010298;28;20231;-73
2023/05/03 04:33:21;;;;;;;0.68;0.68;;;5.90;99.90;;;;;;5010407;28;20211;-73
2023/05/03 04:35:52;;;;;;;0.95;0.95;;;5.90;99.90;;;;;;5010304;28;20223;-73
2023/05/03 04:38:19;;;;;;;1.10;0.63;;;5.90;99.90;;;;;;5011061;28;20211;-74
2023/05/03 04:40:46;;;;;;;1.25;1.20;;;6.00;99.90;;;;;;5009923;28;20659;-73
2023/05/03 04:43:13;;;;;;;0.93;0.93;;;6.00;99.90;;;;;;5010583;28;20253;-73
2023/05/03 04:45:40;;;;;;;1.25;1.15;;;6.10;99.90;;;;;;5010402;28;20207;-73
2023/05/03 04:48:08;;;;;;;0.88;0.88;;;6.10;99.90;;;;;;5011279;28;20243;-73
2023/05/03 04:50:34;;;;;;;8.13;2.15;;;6.20;99.90;;;;;;5011274;28;20262;-73
2023/05/03 04:53:02;;;;;;;1.20;1.20;;;6.30;99.90;;;;;;5010734;28;20539;-72
2023/05/03 04:55:29;;;;;;;0.90;0.90;;;6.40;99.90;;;;;;5010466;28;20221;-73
2023/05/03 04:57:56;;;;;;;10.82;1.98;;;6.40;99.90;;;;;;5011175;28;20293;-73
2023/05/03 05:00:23;;;;;;;1.80;1.48;;;6.50;99.90;;;;;;5010525;28;20211;-74
2023/05/03 05:02:51;;;;;;;7.38;1.25;;;6.50;99.90;;;;;;5010605;28;20729;-73
2023/05/03 05:05:18;;;;;;;0.85;0.85;;;6.60;99.90;;;;;;5010811;28;20693;-74
2023/05/03 05:07:45;;;;;;;1.00;1.00;;;6.60;99.90;;;;;;5011753;28;20211;-74
2023/05/03 05:10:13;;;;;;;1.08;1.08;;;6.60;99.90;;;;;;5010899;28;20213;-74
2023/05/03 05:12:40;;;;;;;0.95;0.95;;;6.70;99.90;;;;;;5011068;28;20249;-74
2023/05/03 05:15:08;;;;;;;1.67;1.58;;;6.70;99.90;;;;;;5011038;28;20306;-74
2023/05/03 05:17:35;;;;;;;1.45;1.45;;;6.80;99.90;;;;;;5010837;28;20231;-74
2023/05/03 05:20:05;;;;;;;0.70;0.70;;;6.80;99.90;;;;;;5010560;28;20207;-73
2023/05/03 05:22:33;;;;;;;1.33;1.27;;;6.90;99.90;;;;;;5009966;28;20324;-74
2023/05/03 05:25:00;;;;;;;1.60;1.50;;;7.00;99.90;;;;;;5009035;28;20262;-74
2023/05/03 05:27:28;;;;;;;2.78;2.28;;;7.00;99.90;;;;;;5010447;28;20668;-73
2023/05/03 05:29:55;;;;;;;10.65;2.35;;;7.10;99.90;;;;;;5010253;28;20215;-74
2023/05/03 05:32:22;;;;;;;3.00;2.00;;;7.20;99.90;;;;;;5010316;28;20233;-74
2023/05/03 05:34:51;;;;;;;1.17;1.13;;;7.30;99.90;;;;;;5009169;28;20211;-74
2023/05/03 05:37:18;;;;;;;2.05;1.95;;;7.30;99.90;;;;;;5009815;28;20212;-74
2023/05/03 05:39:45;;;;;;;2.67;1.60;;;7.40;99.90;;;;;;5008916;28;20207;-73
2023/05/03 05:42:12;;;;;;;1.23;1.23;;;7.60;99.90;;;;;;5009544;28;20231;-74
2023/05/03 05:44:40;;;;;;;0.85;0.85;;;7.70;99.90;;;;;;5009412;28;20230;-74
2023/05/03 05:47:07;;;;;;;1.38;1.27;;;7.70;99.90;;;;;;5010021;28;20207;-74
2023/05/03 05:49:33;;;;;;;1.30;1.10;;;7.70;99.90;;;;;;5010330;28;20211;-73
2023/05/03 05:52:00;;;;;;;1.52;1.42;;;7.80;99.90;;;;;;5009170;28;20237;-73
2023/05/03 05:54:27;;;;;;;1.05;1.05;;;7.90;99.90;;;;;;5008880;28;20323;-65
2023/05/03 05:56:54;;;;;;;1.50;1.13;;;8.10;99.90;;;;;;5009629;28;20261;-74
2023/05/03 05:59:21;;;;;;;1.35;1.35;;;8.20;99.90;;;;;;5009687;28;20643;-73
2023/05/03 06:01:49;;;;;;;1.50;1.40;;;8.40;99.90;;;;;;5007810;28;20335;-73
2023/05/03 06:04:16;;;;;;;1.55;1.45;;;8.50;99.90;;;;;;5008982;28;20683;-73
2023/05/03 06:06:43;;;;;;;1.63;1.63;;;8.70;99.90;;;;;;5009304;28;20694;-73
2023/05/03 06:09:09;;;;;;;1.25;1.25;;;8.70;99.90;;;;;;5009340;28;20203;-73
2023/05/03 06:11:37;;;;;;;1.95;1.95;;;8.80;99.90;;;;;;5009613;28;20230;-73
2023/05/03 06:14:08;;;;;;;1.15;1.13;;;9.00;99.90;;;;;;5011774;28;20207;-73
2023/05/03 06:16:35;;;;;;;1.75;1.60;;;9.10;99.90;;;;;;5012746;28;20245;-73
2023/05/03 06:19:03;;;;;;;2.15;1.30;;;9.10;99.90;;;;;;5012802;28;20212;-73
2023/05/03 06:21:30;;;;;;;1.33;1.25;;;9.30;99.90;;;;;;5012508;28;20274;-73
2023/05/03 06:23:57;;;;;;;1.20;1.20;;;9.40;99.90;;;;;;5013174;28;20223;-73
2023/05/03 06:26:24;;;;;;;1.25;1.25;;;9.60;99.90;;;;;;5012663;28;20207;-73
2023/05/03 06:28:51;;;;;;;1.60;1.60;;;9.70;99.90;;;;;;5013324;28;20207;-73
2023/05/03 06:31:18;;;;;;;1.00;1.00;;;9.80;99.90;;;;;;5013507;28;20238;-73
2023/05/03 06:33:44;;;;;;;2.67;1.48;;;9.80;99.90;;;;;;5012503;28;20203;-73
2023/05/03 06:36:13;;;;;;;1.13;1.07;;;9.90;99.90;;;;;;5012469;28;20269;-74
2023/05/03 06:38:40;;;;;;;1.50;1.40;;;10.00;99.90;;;;;;5013196;28;20473;-73
2023/05/03 06:41:07;;;;;;;1.30;1.30;;;10.10;99.90;;;;;;5012009;28;20715;-73
2023/05/03 06:43:33;;;;;;;3.43;1.50;;;10.10;99.90;;;;;;5012451;28;20670;-74
2023/05/03 06:46:00;;;;;;;0.68;0.68;;;10.10;99.90;;;;;;5012399;28;20557;-73
2023/05/03 06:48:27;;;;;;;1.30;1.20;;;10.10;99.90;;;;;;5012604;28;20283;-73
2023/05/03 06:50:54;;;;;;;0.85;0.85;;;9.90;99.90;;;;;;5012303;28;20486;-73
2023/05/03 06:53:22;;;;;;;1.20;1.20;;;9.90;99.90;;;;;;5012563;28;20215;-73
2023/05/03 06:55:49;;;;;;;0.90;0.90;;;10.00;99.90;;;;;;5012857;28;20469;-74
2023/05/03 06:58:16;;;;;;;0.82;0.82;;;10.10;99.90;;;;;;5013264;28;20239;-74
2023/05/03 07:00:43;;;;;;;0.50;0.50;;;10.00;99.90;;;;;;5011741;28;20745;-74
2023/05/03 07:03:09;;;;;;;1.20;0.85;;;10.00;99.90;;;;;;5011800;28;20784;-73
2023/05/03 07:05:36;;;;;;;1.58;1.10;;;9.90;99.90;;;;;;5011811;28;20229;-73
2023/05/03 07:08:03;;;;;;;0.77;0.77;;;10.00;99.90;;;;;;5011796;28;20234;-73
2023/05/03 07:10:31;;;;;;;1.03;0.50;;;10.10;99.90;;;;;;5011912;28;20210;-74
2023/05/03 07:12:58;;;;;;;1.80;0.40;;;10.20;99.90;;;;;;5012437;28;20928;-73
2023/05/03 07:15:25;;;;;;;0.80;0.80;;;10.30;99.90;;;;;;5011518;28;20474;-73
2023/05/03 07:17:51;;;;;;;0.75;0.70;;;10.30;99.90;;;;;;5012592;28;20207;-74
2023/05/03 07:20:18;;;;;;;1.52;0.80;;;10.30;99.90;;;;;;5011988;28;20702;-73
2023/05/03 07:22:45;;;;;;;0.85;0.80;;;10.30;99.90;;;;;;5011515;28;20218;-74
2023/05/03 07:25:13;;;;;;;1.52;1.42;;;10.20;99.90;;;;;;5010425;28;20265;-74
2023/05/03 07:27:42;;;;;;;0.90;0.90;;;11.00;99.90;;;;;;5011755;28;20629;-73
2023/05/03 07:30:09;;;;;;;0.63;0.63;;;11.60;99.90;;;;;;5011463;28;20473;-74
2023/05/03 07:32:36;;;;;;;4.70;0.83;;;11.70;99.90;;;;;;5011971;28;20848;-74
2023/05/03 07:35:03;;;;;;;1.37;1.27;;;11.70;99.90;;;;;;5011346;28;20589;-74
2023/05/03 07:37:30;;;;;;;0.80;0.67;;;11.60;99.90;;;;;;5011676;28;20520;-74
2023/05/03 07:39:57;;;;;;;1.73;1.63;;;11.70;99.90;;;;;;5011200;28;20477;-73
2023/05/03 07:42:23;;;;;;;0.65;0.65;;;11.80;99.90;;;;;;5011951;28;20895;-74
2023/05/03 07:44:53;;;;;;;0.70;0.70;;;12.10;99.90;;;;;;5011210;28;20224;-74
2023/05/03 07:47:20;;;;;;;2.83;0.90;;;12.30;99.90;;;;;;5011882;28;20462;-73
2023/05/03 07:49:49;;;;;;;0.40;0.40;;;12.40;99.90;;;;;;5011347;28;20564;-73
2023/05/03 07:52:16;;;;;;;0.47;0.47;;;12.60;99.90;;;;;;5011163;28;20486;-74
2023/05/03 07:54:44;;;;;;;9.03;1.03;;;12.70;99.90;;;;;;5010356;28;20462;-73
2023/05/03 07:57:11;;;;;;;0.40;0.40;;;12.30;99.90;;;;;;5011270;28;20470;-73
2023/05/03 07:59:38;;;;;;;0.23;0.23;;;12.20;99.90;;;;;;5011530;28;20472;-73
2023/05/03 08:02:07;;;;;;;2.00;1.73;;;12.10;99.90;;;;;;5010877;28;20494;-74
2023/05/03 08:04:34;;;;;;;2.63;0.47;;;12.20;99.90;;;;;;5010816;28;21013;-73
2023/05/03 08:07:01;;;;;;;0.20;0.20;;;12.40;99.90;;;;;;5011366;28;20466;-73
2023/05/03 08:09:28;;;;;;;1.07;0.30;;;12.60;99.90;;;;;;5011067;28;20577;-73
2023/05/03 08:11:55;;;;;;;1.03;0.90;;;12.60;99.90;;;;;;5011246;28;20496;-73
2023/05/03 08:14:21;;;;;;;0.30;0.30;;;12.70;99.90;;;;;;5010999;28;20545;-74
2023/05/03 08:16:48;;;;;;;0.50;0.50;;;12.40;99.90;;;;;;5012057;28;20472;-73
2023/05/03 08:19:16;;;;;;;0.30;0.30;;;12.30;99.90;;;;;;5011571;28;20473;-73
2023/05/03 08:21:43;;;;;;;4.80;0.77;;;12.30;99.90;;;;;;5011012;28;20523;-73
2023/05/03 08:24:10;;;;;;;0.70;0.70;;;12.10;99.90;;;;;;5010269;28;20486;-74
2023/05/03 08:26:37;;;;;;;0.40;0.40;;;12.30;99.90;;;;;;5011179;28;20477;-73
2023/05/03 08:29:04;;;;;;;7.73;0.60;;;12.40;99.90;;;;;;5011858;28;20470;-73
2023/05/03 08:31:31;;;;;;;3.83;1.13;;;12.40;99.90;;;;;;5011496;28;20571;-74
2023/05/03 08:33:57;;;;;;;1.03;0.50;;;12.40;99.90;;;;;;5010593;28;20963;-73
2023/05/03 08:36:26;;;;;;;0.83;0.70;;;12.50;99.90;;;;;;5010047;28;20465;-74
2023/05/03 08:38:53;;;;;;;2.00;0.43;;;12.70;99.90;;;;;;5010646;28;20461;-74
2023/05/03 08:41:26;;;;;;;0.40;0.20;;;13.00;99.90;;;;;;5009974;28;20486;-73
2023/05/03 08:43:54;;;;;;;0.63;0.63;;;13.00;99.90;;;;;;5010106;28;20498;-73
2023/05/03 08:46:21;;;;;;;1.17;0.70;;;13.10;99.90;;;;;;5010518;28;20466;-73
2023/05/03 08:48:49;;;;;;;0.40;0.40;;;12.90;99.90;;;;;;5011085;28;20473;-73
2023/05/03 08:51:17;;;;;;;0.40;0.40;;;12.80;99.90;;;;;;5010429;28;20521;-74
2023/05/03 08:53:45;;;;;;;1.30;0.70;;;12.70;99.90;;;;;;5010514;28;20465;-74
2023/05/03 08:56:15;;;;;;;0.30;0.30;;;12.60;99.90;;;;;;5009983;28;20461;-74
2023/05/03 08:58:42;;;;;;;0.57;0.57;;;12.60;99.90;;;;;;5010599;28;20474;-75
2023/05/03 09:01:09;;;;;;;0.80;0.80;;;12.60;99.90;;;;;;5008774;28;20857;-75
2023/05/03 09:03:37;;;;;;;1.00;0.90;;;12.40;99.90;;;;;;5009817;28;20493;-75
2023/05/03 09:06:18;;;;;;;0.77;0.77;;;12.40;99.90;;;;;;5009911;28;20780;-74
2023/05/03 09:08:46;;;;;;;0.60;0.60;;;12.40;99.90;;;;;;5011162;28;20615;-75
2023/05/03 09:11:21;;;;;;;1.00;1.00;;;12.50;99.90;;;;;;5009615;28;20504;-74
2023/05/03 09:13:47;;;;;;;1.97;0.70;;;12.50;99.90;;;;;;5009853;28;20466;-74
2023/05/03 09:16:22;;;;;;;2.83;1.00;;;12.50;99.90;;;;;;5009998;28;20466;-74
2023/05/03 09:19:00;;;;;;;0.63;0.63;;;12.60;99.90;;;;;;5010557;28;20789;-75
2023/05/03 09:21:27;;;;;;;0.77;0.77;;;12.60;99.90;;;;;;5009720;28;20492;-74
2023/05/03 09:23:55;;;;;;;0.90;0.90;;;12.70;99.90;;;;;;5009599;28;20501;-74
2023/05/03 09:26:30;;;;;;;0.70;0.70;;;12.60;99.90;;;;;;5009499;28;20462;-75
2023/05/03 09:28:58;;;;;;;0.77;0.77;;;12.50;99.90;;;;;;5009980;28;20574;-75
2023/05/03 09:31:25;;;;;;;1.27;1.10;;;12.50;99.90;;;;;;5009852;28;20489;-75
2023/05/03 09:33:52;;;;;;;1.10;1.10;;;12.50;99.90;;;;;;5009477;28;20929;-74
2023/05/03 09:36:19;;;;;;;1.93;1.83;;;12.50;99.90;;;;;;5009631;28;20527;-73
2023/05/03 09:38:46;;;;;;;1.30;1.30;;;12.60;99.90;;;;;;5010178;28;20462;-73
2023/05/03 09:41:14;;;;;;;3.70;0.90;;;12.60;99.90;;;;;;5009387;28;21045;-74
2023/05/03 09:43:49;;;;;;;1.30;1.30;;;12.70;99.90;;;;;;5009739;28;20780;-73
2023/05/03 09:46:16;;;;;;;1.70;1.50;;;12.70;99.90;;;;;;5009994;28;20897;-73
2023/05/03 09:48:43;;;;;;;1.40;1.40;;;12.70;99.90;;;;;;5012320;28;20469;-73
2023/05/03 09:51:11;;;;;;;3.20;2.03;;;12.70;99.90;;;;;;5013147;28;20647;-73
2023/05/03 09:53:40;;;;;;;2.03;1.37;;;12.70;99.90;;;;;;5013696;28;20622;-74
2023/05/03 09:56:11;;;;;;;1.23;1.23;;;12.70;99.90;;;;;;5013332;28;20568;-73
2023/05/03 09:58:40;;;;;;;1.33;1.33;;;12.80;99.90;;;;;;5014169;28;20462;-73
2023/05/03 10:01:07;;;;;;;1.87;1.40;;;12.70;99.90;;;;;;5013329;28;20505;-73
2023/05/03 10:03:39;;;;;;;1.53;1.53;;;12.80;99.90;;;;;;5013173;28;20470;-74
2023/05/03 10:06:15;;;;;;;1.00;1.00;;;12.80;99.90;;;;;;5012920;28;20532;-74
2023/05/03 10:08:48;;;;;;;1.30;0.70;;;12.80;99.90;;;;;;5013657;28;20545;-73
2023/05/03 10:11:18;;;;;;;0.63;0.40;;;12.70;99.90;;;;;;5012966;28;20473;-73
2023/05/03 10:13:46;;;;;;;0.60;0.60;;;12.80;99.90;;;;;;5036644;23;20932;-72
2023/05/03 10:16:18;;;;;;;0.87;0.57;;;13.10;99.90;;;;;;5014382;28;20462;-73
2023/05/03 10:18:51;;;;;;;0.60;0.60;;;13.40;99.90;;;;;;5014387;28;20461;-73
2023/05/03 10:21:35;;;;;;;0.73;0.73;;;13.70;99.90;;;;;;5013846;28;20469;-72
2023/05/03 10:24:12;;;;;;;0.57;0.57;;;13.80;99.90;;;;;;5013373;28;20580;-72
2023/05/03 10:26:42;;;;;;;0.50;0.50;;;13.90;99.90;;;;;;5014063;28;20498;-73
2023/05/03 10:29:47;;;;;;;1.00;1.00;;;13.90;99.90;;;;;;5013829;28;20463;-72
2023/05/03 10:32:34;;;;;;;0.70;0.70;;;13.80;99.90;;;;;;5004719;28;20462;-72
2023/05/03 10:35:04;;;;;;;0.70;0.70;;;13.70;99.90;;;;;;5013295;28;20478;-73
2023/05/03 10:37:33;;;;;;;0.83;0.83;;;13.60;99.90;;;;;;5013149;28;20554;-75
2023/05/03 10:40:10;;;;;;;1.60;1.23;;;13.50;99.90;;;;;;5013492;28;20477;-74
2023/05/03 10:42:38;;;;;;;1.00;1.00;;;13.30;99.90;;;;;;5013881;28;20462;-73
2023/05/03 10:45:08;;;;;;;0.50;0.50;;;13.30;99.90;;;;;;5012945;28;20486;-72
2023/05/03 10:47:35;;;;;;;1.33;1.33;;;13.00;99.90;;;;;;5013576;28;20465;-73
2023/05/03 10:50:25;;;;;;;0.60;0.60;;;13.20;99.90;;;;;;5013447;28;20820;-74
2023/05/03 10:52:51;;;;;;;2.73;1.37;;;13.20;99.90;;;;;;5013081;28;20893;-72
2023/05/03 10:55:20;;;;;;;0.83;0.83;;;13.30;99.90;;;;;;5013082;28;20485;-73
2023/05/03 10:57:49;;;;;;;0.67;0.67;;;13.50;99.90;;;;;;5014115;28;20462;-73
2023/05/03 11:00:23;;;;;;;0.60;0.60;;;13.60;99.90;;;;;;5013819;28;20462;-73
2023/05/03 11:03:30;;;;;;;0.60;0.60;;;13.30;99.90;;;;;;5013641;28;20465;-74
2023/05/03 11:05:58;;;;;;;0.50;0.50;;;13.10;99.90;;;;;;4983365;28;20505;-73
2023/05/03 11:08:26;;;;;;;0.60;0.60;;;12.90;99.90;;;;;;5014003;28;20545;-72
2023/05/03 11:10:59;;;;;;;2.47;1.00;;;12.90;99.90;;;;;;5012937;28;20466;-72
2023/05/03 11:13:26;;;;;;;0.73;0.73;;;13.00;99.90;;;;;;5013048;28;20492;-73
2023/05/03 11:15:55;;;;;;;0.80;0.80;;;13.10;99.90;;;;;;5013180;28;20551;-74
2023/05/03 11:18:22;;;;;;;0.80;0.80;;;13.10;99.90;;;;;;5013101;28;20469;-74
2023/05/03 11:20:49;;;;;;;1.03;1.03;;;13.00;99.90;;;;;;5012471;28;20524;-73
2023/05/03 11:23:16;;;;;;;1.10;1.10;;;13.20;99.90;;;;;;5012352;28;20473;-72
2023/05/03 11:25:43;;;;;;;1.20;1.20;;;13.00;99.90;;;;;;5012573;28;20474;-73
2023/05/03 11:28:09;;;;;;;5.00;1.03;;;12.80;99.90;;;;;;5012742;28;20962;-73
2023/05/03 11:30:37;;;;;;;0.93;0.70;;;13.00;99.90;;;;;;5012738;28;20481;-73
2023/05/03 11:33:06;;;;;;;1.17;1.17;;;13.10;99.90;;;;;;5012664;28;20478;-73
2023/05/03 11:35:32;;;;;;;1.10;1.10;;;13.20;99.90;;;;;;5012106;28;20495;-73
2023/05/03 11:37:59;;;;;;;1.20;1.10;;;13.30;99.90;;;;;;5012002;28;20462;-73
2023/05/03 11:40:26;;;;;;;2.73;1.20;;;13.40;99.90;;;;;;5012186;28;20462;-73
2023/05/03 11:42:54;;;;;;;0.77;0.77;;;13.40;99.90;;;;;;5012915;28;20931;-73
2023/05/03 11:45:23;;;;;;;3.50;1.37;;;13.30;99.90;;;;;;5012290;28;20501;-73
2023/05/03 11:47:50;;;;;;;1.50;1.07;;;13.20;99.90;;;;;;5012467;28;20466;-73
2023/05/03 11:50:26;;;;;;;1.30;1.30;;;13.20;99.90;;;;;;5012549;28;20485;-73
2023/05/03 11:52:53;;;;;;;1.40;1.10;;;13.20;99.90;;;;;;5012309;28;20871;-73
2023/05/03 11:55:21;;;;;;;1.10;1.10;;;13.10;99.90;;;;;;5011561;28;20477;-73
2023/05/03 11:57:48;;;;;;;6.53;1.60;;;13.30;99.90;;;;;;5013128;28;20474;-73
2023/05/03 12:00:16;;;;;;;1.60;1.23;;;13.40;99.90;;;;;;5014096;28;20481;-73
2023/05/03 12:02:44;;;;;;;1.27;1.20;;;13.40;99.90;;;;;;5014088;28;20473;-73
2023/05/03 12:05:11;;;;;;;1.63;1.63;;;13.50;99.90;;;;;;5012573;28;20996;-73
2023/05/03 12:07:40;;;;;;;1.53;1.33;;;13.70;99.90;;;;;;5012135;28;20564;-73
2023/05/03 12:10:16;;;;;;;1.17;1.17;;;13.60;99.70;;;;;;5011866;28;20555;-73
2023/05/03 12:12:52;;;;;;;1.30;1.30;;;13.50;99.90;;;;;;5012120;28;20870;-73
2023/05/03 12:15:31;;;;;;;1.23;1.23;;;13.70;99.90;;;;;;5011666;28;20481;-73
2023/05/03 12:17:58;;;;;;;0.80;0.80;;;13.70;99.90;;;;;;5012068;28;20830;-73
2023/05/03 12:20:29;;;;;;;1.80;1.80;;;13.60;99.90;;;;;;5011981;28;20462;-73
2023/05/03 12:23:03;;;;;;;1.00;1.00;;;13.50;99.90;;;;;;5011557;28;20472;-73
2023/05/03 12:25:31;;;;;;;1.60;1.50;;;13.50;99.90;;;;;;5011026;28;20503;-73
2023/05/03 12:28:01;;;;;;;5.30;1.80;;;13.20;99.90;;;;;;5011859;28;20934;-73
2023/05/03 12:30:28;;;;;;;1.63;1.53;;;13.20;99.90;;;;;;5012003;28;20469;-73
2023/05/03 12:32:55;;;;;;;1.37;1.37;;;12.80;99.90;;;;;;5012144;28;20458;-74
2023/05/03 12:35:22;;;;;;;1.10;1.10;;;12.60;99.90;;;;;;5011724;28;20548;-74
2023/05/03 12:37:50;;;;;;;2.13;1.83;;;12.60;99.90;;;;;;5011276;28;20977;-74
2023/05/03 12:40:19;;;;;;;1.33;1.23;;;12.50;99.90;;;;;;5011308;28;20458;-74
2023/05/03 12:42:46;;;;;;;2.60;1.77;;;12.50;99.90;;;;;;5011813;28;20215;-74
2023/05/03 12:45:13;;;;;;;1.00;1.00;;;12.60;99.90;;;;;;5011154;28;20833;-74
2023/05/03 12:47:40;;;;;;;0.73;0.73;;;12.70;99.90;;;;;;5011454;28;20465;-74
2023/05/03 12:50:08;;;;;;;1.30;1.30;;;12.80;99.90;;;;;;5011707;28;20462;-74
2023/05/03 12:52:35;;;;;;;1.03;1.03;;;12.90;99.90;;;;;;5011654;28;20710;-74
2023/05/03 12:55:02;;;;;;;1.85;1.80;;;12.90;99.90;;;;;;5010576;28;20513;-73
2023/05/03 12:57:31;;;;;;;1.80;1.80;;;13.00;99.90;;;;;;5011791;28;20206;-72
2023/05/03 12:59:58;;;;;;;1.98;1.98;;;13.10;99.90;;;;;;5011662;28;20469;-73
2023/05/03 13:02:25;;;;;;;1.70;1.70;;;13.00;99.90;;;;;;5011130;28;20207;-73
2023/05/03 13:04:54;;;;;;;1.20;1.10;;;13.00;99.90;;;;;;5010569;28;20489;-73
2023/05/03 13:07:23;;;;;;;1.30;1.20;;;13.10;99.90;;;;;;5011224;28;20880;-73
2023/05/03 13:09:50;;;;;;;2.00;1.73;;;13.20;99.90;;;;;;5011970;28;20931;-74
2023/05/03 13:12:19;;;;;;;1.70;1.70;;;13.20;99.90;;;;;;5011717;28;20580;-74
2023/05/03 13:14:47;;;;;;;1.20;1.17;;;13.30;99.90;;;;;;5010695;28;20552;-74
2023/05/03 13:17:14;;;;;;;1.93;1.83;;;13.40;99.90;;;;;;5011160;28;20462;-74
2023/05/03 13:19:42;;;;;;;1.50;1.40;;;13.50;99.90;;;;;;5011069;28;20473;-74
2023/05/03 13:22:09;;;;;;;4.93;2.20;;;13.50;99.50;;;;;;5012804;28;20472;-74
2023/05/03 13:24:36;;;;;;;1.30;1.30;;;13.50;99.70;;;;;;5015170;28;20481;-74
2023/05/03 13:27:03;;;;;;;3.43;1.87;;;13.50;99.80;;;;;;5015338;28;20458;-73
2023/05/03 13:29:30;;;;;;;3.50;1.60;;;13.50;99.30;;;;;;5015837;28;20470;-74
2023/05/03 13:31:58;;;;;;;1.47;1.37;;;13.40;99.10;;;;;;5015304;28;20958;-74
2023/05/03 13:34:25;;;;;;;1.20;1.20;;;13.50;99.70;;;;;;5015114;28;21017;-74
2023/05/03 13:36:51;;;;;;;1.53;1.47;;;13.50;99.30;;;;;;5015585;28;20464;-74
2023/05/03 13:39:18;;;;;;;1.53;1.50;;;13.50;98.30;;;;;;5015283;28;20469;-74
2023/05/03 13:41:45;;;;;;;12.13;2.67;;;13.50;98.90;;;;;;5015762;28;20454;-74
2023/05/03 13:44:12;;;;;;;1.90;1.80;;;13.50;99.10;;;;;;5014350;28;20485;-74
2023/05/03 13:46:39;;;;;;;2.53;1.10;;;13.60;99.00;;;;;;5014998;28;20516;-73
2023/05/03 13:49:07;;;;;;;2.20;1.20;;;13.60;98.60;;;;;;5015115;28;20470;-73
2023/05/03 13:51:35;;;;;;;3.00;2.80;;;13.80;98.90;;;;;;5014673;28;20782;-74
2023/05/03 13:54:03;;;;;;;1.80;1.70;;;13.80;99.40;;;;;;5014367;28;20488;-74
2023/05/03 13:56:30;;;;;;;1.57;1.57;;;13.80;99.60;;;;;;5014497;28;20965;-74
2023/05/03 13:58:57;;;;;;;1.50;1.50;;;13.90;99.50;;;;;;5014460;28;20954;-74
2023/05/03 14:01:24;;;;;;;1.60;1.60;;;14.00;99.40;;;;;;5014192;28;20946;-74
2023/05/03 14:03:51;;;;;;;1.80;1.80;;;14.00;98.70;;;;;;5013506;28;20512;-74
2023/05/03 14:06:19;;;;;;;2.13;1.97;;;14.20;99.30;;;;;;5014172;28;20672;-74
2023/05/03 14:08:46;;;;;;;4.57;4.30;;;14.20;99.30;;;;;;5014369;28;20461;-74
2023/05/03 14:11:13;;;;;;;1.80;1.80;;;14.20;99.40;;;;;;5014063;28;20472;-74
2023/05/03 14:13:43;;;;;;;1.17;1.17;;;14.20;99.40;;;;;;5013869;28;20494;-74
2023/05/03 14:16:15;;;;;;;3.07;2.93;;;14.10;99.50;;;;;;5014011;28;20497;-74
2023/05/03 14:18:42;;;;;;;1.70;1.70;;;14.20;99.40;;;;;;5014392;28;20454;-74
2023/05/03 14:21:09;;;;;;;2.80;1.73;;;14.20;99.30;;;;;;5014130;28;20470;-74
2023/05/03 14:23:38;;;;;;;2.20;2.00;;;14.20;99.50;;;;;;5014073;28;20485;-74
2023/05/03 14:26:05;;;;;;;2.10;1.70;;;14.30;98.90;;;;;;5013536;28;21104;-75
2023/05/03 14:28:31;;;;;;;1.60;1.60;;;14.10;98.70;;;;;;5014126;28;20465;-74
2023/05/03 14:30:58;;;;;;;2.87;2.67;;;14.20;99.40;;;;;;5014400;28;20469;-74
2023/05/03 14:33:25;;;;;;;1.57;1.57;;;14.20;97.90;;;;;;5014235;28;20462;-73
2023/05/03 14:35:52;;;;;;;1.90;1.80;;;14.20;98.10;;;;;;5014155;28;20457;-73
2023/05/03 14:38:19;;;;;;;1.30;1.30;;;14.30;97.90;;;;;;5015341;28;20485;-74
2023/05/03 14:40:47;;;;;;;2.00;1.50;;;14.30;97.80;;;;;;5014120;28;20462;-73
2023/05/03 14:43:14;;;;;;;1.40;1.30;;;14.40;97.40;;;;;;5013616;28;20458;-74
2023/05/03 14:45:41;;;;;;;1.77;1.77;;;14.50;97.90;;;;;;5013730;28;20585;-74
2023/05/03 14:48:07;;;;;;;4.93;2.03;;;14.50;97.40;;;;;;5013868;28;20954;-74
2023/05/03 14:50:34;;;;;;;1.70;1.60;;;14.40;96.80;;;;;;5013981;28;20477;-73
2023/05/03 14:53:01;;;;;;;2.00;1.33;;;14.40;96.10;;;;;;5013606;28;20495;-73
2023/05/03 14:55:28;;;;;;;2.00;1.90;;;14.30;96.80;;;;;;5016873;28;20474;-75
2023/05/03 14:57:56;;;;;;;3.10;1.70;;;14.30;97.70;;;;;;5016772;28;20466;-75
2023/05/03 15:00:24;;;;;;;1.47;1.47;;;14.40;97.50;;;;;;5016174;28;20465;-75
2023/05/03 15:02:53;;;;;;;1.27;1.20;;;14.30;97.50;;;;;;5015302;28;20470;-75
2023/05/03 15:05:20;;;;;;;2.90;2.70;;;14.30;97.40;;;;;;5016453;28;20516;-74
2023/05/03 15:07:47;;;;;;;1.53;1.53;;;14.40;97.30;;;;;;5015398;28;20488;-75
2023/05/03 15:10:14;;;;;;;1.90;1.80;;;14.40;97.50;;;;;;5014518;28;20462;-74
2023/05/03 15:12:40;;;;;;;2.17;2.17;;;14.50;97.40;;;;;;5014563;28;20951;-75
2023/05/03 15:15:10;;;;;;;0.80;0.80;;;14.60;97.30;;;;;;5014599;28;20744;-71
2023/05/03 15:17:37;;;;;;;1.20;1.10;;;14.60;96.90;;;;;;5014676;28;20464;-74
2023/05/03 15:20:05;;;;;;;1.93;1.20;;;14.80;96.80;;;;;;5014377;28;20472;-75
2023/05/03 15:22:32;;;;;;;1.20;1.20;;;14.90;96.30;;;;;;5012953;28;20956;-74
2023/05/03 15:24:59;;;;;;;1.33;1.20;;;14.90;96.00;;;;;;5011940;28;20486;-75
2023/05/03 15:27:26;;;;;;;1.30;1.30;;;15.00;96.20;;;;;;5013069;28;20591;-75
2023/05/03 15:29:52;;;;;;;1.17;1.17;;;15.10;95.60;;;;;;5013451;28;20576;-75
2023/05/03 15:32:20;;;;;;;1.43;1.40;;;15.20;95.50;;;;;;5013307;28;20458;-75
2023/05/03 15:34:47;;;;;;;1.63;1.63;;;15.20;95.20;;;;;;5012268;28;20482;-75
2023/05/03 15:37:14;;;;;;;4.27;1.70;;;15.30;95.40;;;;;;5012576;28;20457;-74
2023/05/03 15:39:40;;;;;;;15.57;1.67;;;15.30;95.60;;;;;;5011834;28;20498;-75
2023/05/03 15:42:07;;;;;;;0.90;0.83;;;15.40;95.60;;;;;;5012894;28;20462;-74
2023/05/03 15:44:34;;;;;;;1.33;1.33;;;15.40;95.90;;;;;;5011879;28;20489;-75
2023/05/03 15:47:01;;;;;;;1.73;1.63;;;15.40;96.40;;;;;;5012096;28;20585;-74
2023/05/03 15:49:29;;;;;;;1.47;1.47;;;15.20;95.40;;;;;;5012803;28;20552;-75
2023/05/03 15:51:56;;;;;;;1.30;1.20;;;15.20;95.20;;;;;;5012209;28;20473;-76
2023/05/03 15:54:23;;;;;;;1.57;1.43;;;15.30;96.40;;;;;;5011768;28;20551;-75
2023/05/03 15:56:52;;;;;;;1.60;1.60;;;15.40;95.70;;;;;;5012926;28;20473;-75
2023/05/03 15:59:18;;;;;;;12.33;1.53;;;15.40;96.20;;;;;;5012882;28;20978;-75
2023/05/03 16:01:46;;;;;;;1.20;1.10;;;15.40;95.60;;;;;;5012795;28;20466;-74
2023/05/03 16:04:12;;;;;;;1.17;1.07;;;15.30;95.10;;;;;;5011368;28;20873;-75
2023/05/03 16:06:41;;;;;;;1.17;1.17;;;15.30;95.40;;;;;;5011205;28;20486;-74
2023/05/03 16:09:09;;;;;;;1.90;1.80;;;15.40;94.30;;;;;;5012028;28;20462;-75
2023/05/03 16:11:36;;;;;;;1.63;1.53;;;15.20;95.00;;;;;;5012233;28;20470;-74
2023/05/03 16:14:07;;;;;;;1.10;1.10;;;15.00;96.20;;;;;;5031539;23;20901;-74
2023/05/03 16:16:35;;;;;;;1.97;1.97;;;15.00;96.50;;;;;;4991770;28;20574;-74
2023/05/03 16:19:02;;;;;;;1.10;1.00;;;14.90;96.40;;;;;;4991317;28;20497;-74
2023/05/03 16:21:28;;;;;;;1.63;1.53;;;14.90;96.60;;;;;;4990670;28;20555;-73
2023/05/03 16:23:57;;;;;;;1.30;1.20;;;14.80;96.80;;;;;;4990914;28;20486;-74
2023/05/03 16:26:23;;;;;;;1.23;1.23;;;14.90;97.10;;;;;;4990845;28;20521;-73
2023/05/03 16:28:50;;;;;;;3.57;3.33;;;14.80;96.70;;;;;;4991465;28;20470;-73
2023/05/03 16:31:17;;;;;;;1.17;1.17;;;14.80;97.00;;;;;;4991413;28;20467;-74
2023/05/03 16:33:44;;;;;;;1.20;1.20;;;14.80;97.40;;;;;;4991180;28;20566;-73
2023/05/03 16:36:11;;;;;;;7.83;2.17;;;14.90;97.40;;;;;;4990982;28;20467;-73
2023/05/03 16:38:38;;;;;;;1.20;1.20;;;14.90;97.50;;;;;;4991464;28;20833;-73
2023/05/03 16:41:06;;;;;;;1.00;1.00;;;14.90;97.40;;;;;;4994134;28;20466;-73
2023/05/03 16:43:32;;;;;;;1.03;1.03;;;14.90;97.00;;;;;;5001410;28;20462;-74
2023/05/03 16:46:01;;;;;;;0.83;0.83;;;14.90;96.90;;;;;;4999491;28;20581;-73
2023/05/03 16:48:27;;;;;;;3.80;0.90;;;14.90;97.30;;;;;;4998920;28;20621;-72
2023/05/03 16:50:54;;;;;;;1.50;1.40;;;15.00;97.40;;;;;;4998864;28;20504;-72
2023/05/03 16:53:21;;;;;;;1.70;1.60;;;14.90;97.40;;;;;;5000010;28;20496;-73